Helena — SCGL — position and weather

sailwx.info

Track history (hours):
 
Tides and Currents Weather Stations Pressure Air Temp Water Temp Dewpoint Dewpoint Depression Visibility Wind Speed Wind Dir Waves Ship Positions

Helena

Last reported at 2015-Jul-05 12:33 UTC. Time now 2015-Jul-05 12:54 UTC.
Position N 55°31' E 014°51'.

Length 169 m; draft 7 m.

Type: Cargo ship. MMSI: 265145000.

Date/timePositionNaut miles runAvg speedWind from/ knotsBaromVisibWave heightAir tempDewpointWater temp
2015-Jul-05 12:33N 55°31' E 014°51'9 9.5
2015-Jul-05 11:33N 55°36' E 015°05'10 9.7
2015-Jul-05 10:33N 55°41' E 015°20'1110.0
2015-Jul-05 09:25N 55°46' E 015°37'1110.0
2015-Jul-05 08:21N 55°52' E 015°54'8 9.7
2015-Jul-05 07:31N 55°56' E 016°06'12 9.6
2015-Jul-05 06:18N 56°02' E 016°24'  
2015-Jun-30 03:31N 55°43' E 015°41'1616.8
2015-Jun-30 02:33N 55°35' E 015°16'1716.8
2015-Jun-30 01:33N 55°27' E 014°50'1716.5
2015-Jun-30 00:33N 55°16' E 014°29'1716.5
2015-Jun-29 23:33N 55°03' E 014°09'1916.5
2015-Jun-29 22:23N 54°55' E 013°39'3016.5
2015-Jun-29 20:33N 54°45' E 012°49'1715.9
2015-Jun-29 19:29N 54°35' E 012°26'1415.4
2015-Jun-29 18:34N 54°25' E 012°09'1615.7
2015-Jun-29 17:33N 54°18' E 011°45'1615.9
2015-Jun-29 16:33N 54°10' E 011°21'19 1.5
2015-Jun-29 03:25N 53°59' E 010°55'1112.7
2015-Jun-29 02:33N 54°06' E 011°08'1413.8
2015-Jun-29 01:33N 54°14' E 011°27'1413.8
2015-Jun-29 00:33N 54°22' E 011°48'1313.3
2015-Jun-28 23:33N 54°26' E 012°09'2613.0
2015-Jun-28 21:33N 54°46' E 012°39'4012.9
2015-Jun-28 18:26N 54°60' E 013°45'9 8.5
2015-Jun-28 17:20N 55°03' E 013°60'14 7.9
2015-Jun-28 15:31N 55°13' E 014°17'11 8.2
2015-Jun-28 14:13N 55°21' E 014°29'6 8.2
2015-Jun-28 13:31N 55°25' E 014°35'8 8.4
2015-Jun-28 12:34N 55°30' E 014°48'9 8.9
2015-Jun-28 11:33N 55°34' E 015°01'9 8.8
2015-Jun-28 10:33N 55°39' E 015°14'104 8.6
2015-Jun-27 22:32N 57°01' E 017°10'9 9.7
2015-Jun-27 21:33N 57°10' E 017°15'9 9.4
2015-Jun-27 20:33N 57°18' E 017°24'9 9.2
2015-Jun-27 19:33N 57°25' E 017°33'9 9.1
2015-Jun-27 18:33N 57°33' E 017°42'10 9.2
2015-Jun-27 17:28N 57°42' E 017°52'  
Track history (hours):
 
Tides and Currents Weather Stations Pressure Air Temp Water Temp Dewpoint Dewpoint Depression Visibility Wind Speed Wind Dir Waves Ship Positions

Helena

Last reported at 2015-Jul-05 12:33 UTC. Time now 2015-Jul-05 12:54 UTC.
Position N 55°31' E 014°51'.

Length 169 m; draft 7 m.

Type: Cargo ship. MMSI: 265145000.

Date/timePositionNaut miles runAvg speedWind from/ knotsBaromVisibWave heightAir tempDewpointWater temp
2015-Jul-05 12:33N 55°31' E 014°51'9 9.5
2015-Jul-05 11:33N 55°36' E 015°05'10 9.7
2015-Jul-05 10:33N 55°41' E 015°20'1110.0
2015-Jul-05 09:25N 55°46' E 015°37'1110.0
2015-Jul-05 08:21N 55°52' E 015°54'8 9.7
2015-Jul-05 07:31N 55°56' E 016°06'12 9.6
2015-Jul-05 06:18N 56°02' E 016°24'  
2015-Jun-30 03:31N 55°43' E 015°41'1616.8
2015-Jun-30 02:33N 55°35' E 015°16'1716.8
2015-Jun-30 01:33N 55°27' E 014°50'1716.5
2015-Jun-30 00:33N 55°16' E 014°29'1716.5
2015-Jun-29 23:33N 55°03' E 014°09'1916.5
2015-Jun-29 22:23N 54°55' E 013°39'3016.5
2015-Jun-29 20:33N 54°45' E 012°49'1715.9
2015-Jun-29 19:29N 54°35' E 012°26'1415.4
2015-Jun-29 18:34N 54°25' E 012°09'1615.7
2015-Jun-29 17:33N 54°18' E 011°45'1615.9
2015-Jun-29 16:33N 54°10' E 011°21'19 1.5
2015-Jun-29 03:25N 53°59' E 010°55'1112.7
2015-Jun-29 02:33N 54°06' E 011°08'1413.8
2015-Jun-29 01:33N 54°14' E 011°27'1413.8
2015-Jun-29 00:33N 54°22' E 011°48'1313.3
2015-Jun-28 23:33N 54°26' E 012°09'2613.0
2015-Jun-28 21:33N 54°46' E 012°39'4012.9
2015-Jun-28 18:26N 54°60' E 013°45'9 8.5
2015-Jun-28 17:20N 55°03' E 013°60'14 7.9
2015-Jun-28 15:31N 55°13' E 014°17'11 8.2
2015-Jun-28 14:13N 55°21' E 014°29'6 8.2
2015-Jun-28 13:31N 55°25' E 014°35'8 8.4
2015-Jun-28 12:34N 55°30' E 014°48'9 8.9
2015-Jun-28 11:33N 55°34' E 015°01'9 8.8
2015-Jun-28 10:33N 55°39' E 015°14'104 8.6
2015-Jun-27 22:32N 57°01' E 017°10'9 9.7
2015-Jun-27 21:33N 57°10' E 017°15'9 9.4
2015-Jun-27 20:33N 57°18' E 017°24'9 9.2
2015-Jun-27 19:33N 57°25' E 017°33'9 9.1
2015-Jun-27 18:33N 57°33' E 017°42'10 9.2
2015-Jun-27 17:28N 57°42' E 017°52'  

Dump ship's entire track history